createdAt,value
2018-02-09T00:00:50.344Z,0.00
2018-02-09T00:01:50.316Z,0.00
2018-02-09T00:02:50.270Z,0.00
2018-02-09T00:03:50.274Z,0.00
2018-02-09T00:04:50.211Z,0.00
2018-02-09T00:05:50.195Z,0.00
2018-02-09T00:06:50.155Z,0.00
2018-02-09T00:07:50.125Z,0.00
2018-02-09T00:08:50.100Z,0.00
2018-02-09T00:09:50.097Z,0.00
2018-02-09T00:10:50.051Z,0.00
2018-02-09T00:11:49.994Z,0.00
2018-02-09T00:12:49.975Z,0.00
2018-02-09T00:13:49.932Z,0.00
2018-02-09T00:14:49.921Z,0.00
2018-02-09T00:15:49.873Z,0.00
2018-02-09T00:16:49.856Z,0.00
2018-02-09T00:17:49.816Z,0.00
2018-02-09T00:18:49.810Z,0.00
2018-02-09T00:19:49.760Z,0.00
2018-02-09T00:20:49.734Z,0.00
2018-02-09T00:21:49.700Z,0.00
2018-02-09T00:22:49.669Z,0.00
2018-02-09T00:23:49.648Z,0.00
2018-02-09T00:24:49.602Z,0.00
2018-02-09T00:25:49.577Z,0.00
2018-02-09T00:26:49.583Z,0.00
2018-02-09T00:27:49.514Z,0.00
2018-02-09T00:28:49.472Z,0.00
2018-02-09T00:29:49.442Z,0.00
2018-02-09T00:30:49.414Z,0.00
2018-02-09T00:31:49.386Z,0.00
2018-02-09T00:32:49.353Z,0.00
2018-02-09T00:33:49.334Z,0.00
2018-02-09T00:34:49.292Z,0.00
2018-02-09T00:35:49.273Z,0.00
2018-02-09T00:36:49.240Z,0.00
2018-02-09T00:37:49.254Z,0.00
2018-02-09T00:38:49.200Z,0.00
2018-02-09T00:39:49.137Z,0.00
2018-02-09T00:40:49.108Z,0.00
2018-02-09T00:41:49.072Z,0.00
2018-02-09T00:42:49.054Z,0.00
2018-02-09T00:43:49.012Z,0.00
2018-02-09T00:44:48.993Z,0.00
2018-02-09T00:45:48.954Z,0.00
2018-02-09T00:46:48.920Z,0.00
2018-02-09T00:47:48.906Z,0.00
2018-02-09T00:48:48.858Z,0.00
2018-02-09T00:49:48.840Z,0.00
2018-02-09T00:50:48.802Z,0.00
2018-02-09T00:51:48.770Z,0.00
2018-02-09T00:52:48.738Z,0.00
2018-02-09T00:53:48.746Z,0.00
2018-02-09T00:54:48.688Z,0.00
2018-02-09T00:55:48.651Z,0.00
2018-02-09T00:56:48.619Z,0.00
2018-02-09T00:57:48.594Z,0.00
2018-02-09T00:58:48.550Z,0.00
2018-02-09T00:59:48.538Z,0.00
2018-02-09T01:00:48.492Z,0.00
2018-02-09T01:01:48.461Z,0.00
2018-02-09T01:02:48.443Z,0.00
2018-02-09T01:03:48.524Z,0.00
2018-02-09T01:04:48.370Z,0.00
2018-02-09T01:05:48.337Z,0.00
2018-02-09T01:06:48.329Z,0.00
2018-02-09T01:07:48.277Z,0.00
2018-02-09T01:08:48.258Z,0.00
2018-02-09T01:09:48.216Z,0.00
2018-02-09T01:10:48.190Z,0.00
2018-02-09T01:11:48.190Z,0.00
2018-02-09T01:12:48.152Z,0.00
2018-02-09T01:13:48.141Z,0.00
2018-02-09T01:14:48.091Z,0.00
2018-02-09T01:15:48.064Z,0.00
2018-02-09T01:16:48.012Z,0.00
2018-02-09T01:17:47.969Z,0.00
2018-02-09T01:18:47.947Z,0.00
2018-02-09T01:19:47.918Z,0.00
2018-02-09T01:20:47.876Z,0.00
2018-02-09T01:21:47.848Z,0.00
2018-02-09T01:22:47.818Z,0.00
2018-02-09T01:23:47.783Z,0.00
2018-02-09T01:24:47.753Z,0.00
2018-02-09T01:25:47.747Z,0.00
2018-02-09T01:26:47.691Z,0.00
2018-02-09T01:27:47.678Z,0.00
2018-02-09T01:28:47.644Z,0.00
2018-02-09T01:29:47.599Z,0.00
2018-02-09T01:30:47.584Z,0.00
2018-02-09T01:31:47.552Z,0.00
2018-02-09T01:32:47.522Z,0.00
2018-02-09T01:33:47.493Z,0.00
2018-02-09T01:34:47.460Z,0.00
2018-02-09T01:35:47.435Z,0.00
2018-02-09T01:36:47.392Z,0.00
2018-02-09T01:37:47.357Z,0.00
2018-02-09T01:38:47.345Z,0.00
2018-02-09T01:39:47.299Z,0.00
2018-02-09T01:40:47.267Z,0.00
2018-02-09T01:41:47.254Z,0.00
2018-02-09T01:42:47.204Z,0.00
2018-02-09T01:43:47.198Z,0.00
2018-02-09T01:44:47.156Z,0.00
2018-02-09T01:45:47.170Z,0.00
2018-02-09T01:46:47.220Z,0.00
2018-02-09T01:47:47.437Z,0.00
2018-02-09T01:48:47.145Z,0.00
2018-02-09T01:49:47.140Z,0.00
2018-02-09T01:50:47.039Z,0.00
2018-02-09T01:51:46.968Z,0.00
2018-02-09T01:52:47.574Z,0.00
2018-02-09T01:53:46.994Z,0.00
2018-02-09T01:54:46.866Z,0.00
2018-02-09T01:55:46.807Z,0.00
2018-02-09T01:56:46.823Z,0.00
2018-02-09T01:57:46.813Z,0.00
2018-02-09T01:58:46.773Z,0.00
2018-02-09T01:59:46.783Z,0.00
2018-02-09T02:00:46.700Z,0.00
2018-02-09T02:01:46.682Z,0.00
2018-02-09T02:02:46.719Z,0.00
2018-02-09T02:03:46.652Z,0.00
2018-02-09T02:04:46.627Z,0.00
2018-02-09T02:05:48.575Z,0.00
2018-02-09T02:06:46.731Z,0.00
2018-02-09T02:07:48.030Z,0.00
2018-02-09T02:08:47.306Z,0.00
2018-02-09T02:09:46.506Z,0.00
2018-02-09T02:10:46.399Z,0.00
2018-02-09T02:11:46.856Z,0.00
2018-02-09T02:12:46.306Z,0.00
2018-02-09T02:13:46.357Z,0.00
2018-02-09T02:14:46.729Z,0.00
2018-02-09T02:15:46.274Z,0.00
2018-02-09T02:16:46.763Z,0.00
2018-02-09T02:17:46.165Z,0.00
2018-02-09T02:18:46.338Z,0.00
2018-02-09T02:19:47.903Z,0.00
2018-02-09T02:20:46.074Z,0.00
2018-02-09T02:21:46.201Z,0.00
2018-02-09T02:22:46.277Z,0.00
2018-02-09T02:23:46.321Z,0.00
2018-02-09T02:24:46.007Z,0.00
2018-02-09T02:25:46.060Z,0.00
2018-02-09T02:26:45.931Z,0.00
2018-02-09T02:27:46.057Z,0.00
2018-02-09T02:28:45.960Z,0.00
2018-02-09T02:29:45.832Z,0.00
2018-02-09T02:30:45.981Z,0.00
2018-02-09T02:31:45.811Z,0.00
2018-02-09T02:32:45.706Z,0.00
2018-02-09T02:33:45.680Z,0.00
2018-02-09T02:34:45.774Z,0.00
2018-02-09T02:35:45.756Z,0.00
2018-02-09T02:36:45.579Z,0.00
2018-02-09T02:37:45.549Z,0.00
2018-02-09T02:38:45.533Z,0.00
2018-02-09T02:39:48.468Z,0.00
2018-02-09T02:40:45.509Z,0.00
2018-02-09T02:41:45.417Z,0.00
2018-02-09T02:42:45.377Z,0.00
2018-02-09T02:43:45.381Z,0.00
2018-02-09T02:44:45.323Z,0.00
2018-02-09T02:45:45.336Z,0.00
2018-02-09T02:46:45.267Z,0.00
2018-02-09T02:47:45.240Z,0.00
2018-02-09T02:48:45.199Z,0.00
2018-02-09T02:49:45.169Z,0.00
2018-02-09T02:50:45.143Z,0.00
2018-02-09T02:51:45.105Z,0.00
2018-02-09T02:52:45.101Z,0.00
2018-02-09T02:53:45.078Z,0.00
2018-02-09T02:54:45.060Z,0.00
2018-02-09T02:55:44.988Z,0.00
2018-02-09T02:56:44.958Z,0.00
2018-02-09T02:57:44.951Z,0.00
2018-02-09T02:58:44.897Z,0.00
2018-02-09T02:59:44.870Z,0.00
2018-02-09T03:00:44.862Z,0.00
2018-02-09T03:01:44.806Z,0.00
2018-02-09T03:02:44.816Z,0.00
2018-02-09T03:03:44.747Z,0.00
2018-02-09T03:04:44.729Z,0.00
2018-02-09T03:05:44.683Z,0.00
2018-02-09T03:06:44.659Z,0.00
2018-02-09T03:07:44.631Z,0.00
2018-02-09T03:08:44.606Z,0.00
2018-02-09T03:09:44.576Z,0.00
2018-02-09T03:10:44.542Z,0.00
2018-02-09T03:11:44.504Z,0.00
2018-02-09T03:12:44.482Z,0.00
2018-02-09T03:13:44.454Z,0.00
2018-02-09T03:14:44.424Z,0.00
2018-02-09T03:15:44.376Z,0.00
2018-02-09T03:16:44.355Z,0.00
2018-02-09T03:17:44.326Z,0.00
2018-02-09T03:18:44.286Z,0.00
2018-02-09T03:19:44.259Z,0.00
2018-02-09T03:20:44.242Z,0.00
2018-02-09T03:21:44.214Z,0.00
2018-02-09T03:22:44.184Z,0.00
2018-02-09T03:23:44.134Z,0.00
2018-02-09T03:24:44.128Z,0.00
2018-02-09T03:25:44.075Z,0.00
2018-02-09T03:26:44.057Z,0.00
2018-02-09T03:27:44.041Z,0.00
2018-02-09T03:28:43.983Z,0.00
2018-02-09T03:29:43.968Z,0.00
2018-02-09T03:30:43.994Z,0.00
2018-02-09T03:31:43.924Z,0.00
2018-02-09T03:32:43.945Z,0.00
2018-02-09T03:33:43.841Z,0.00
2018-02-09T03:34:43.859Z,0.00
2018-02-09T03:35:43.806Z,0.00
2018-02-09T03:36:43.742Z,0.00
2018-02-09T03:37:43.712Z,0.00
2018-02-09T03:38:43.692Z,0.00
2018-02-09T03:39:43.667Z,0.00
2018-02-09T03:40:43.624Z,0.00
2018-02-09T03:41:43.589Z,0.00
2018-02-09T03:42:43.560Z,0.00
2018-02-09T03:43:43.559Z,0.00
2018-02-09T03:44:43.505Z,0.00
2018-02-09T03:45:43.471Z,0.00
2018-02-09T03:46:43.439Z,0.00
2018-02-09T03:47:43.406Z,0.00
2018-02-09T03:48:43.436Z,0.00
2018-02-09T03:49:43.382Z,0.00
2018-02-09T03:50:43.342Z,0.00
2018-02-09T03:51:43.311Z,0.00
2018-02-09T03:52:43.255Z,0.00
2018-02-09T03:53:43.247Z,0.00
2018-02-09T03:54:43.240Z,0.00
2018-02-09T03:55:43.175Z,0.00
2018-02-09T03:56:43.138Z,0.00
2018-02-09T03:57:43.107Z,0.00
2018-02-09T03:58:43.106Z,0.00
2018-02-09T03:59:43.055Z,0.00
2018-02-09T04:00:43.042Z,0.00
2018-02-09T04:01:42.988Z,0.00
2018-02-09T04:02:42.962Z,0.00
2018-02-09T04:03:42.931Z,0.00
2018-02-09T04:04:42.892Z,0.00
2018-02-09T04:05:42.891Z,0.00
2018-02-09T04:06:42.875Z,0.00
2018-02-09T04:07:42.812Z,0.00
2018-02-09T04:08:42.774Z,0.00
2018-02-09T04:09:42.772Z,0.00
2018-02-09T04:10:42.729Z,0.00
2018-02-09T04:11:42.689Z,0.00
2018-02-09T04:12:42.674Z,0.00
2018-02-09T04:13:42.621Z,0.00
2018-02-09T04:14:42.614Z,0.00
2018-02-09T04:15:42.579Z,0.00
2018-02-09T04:16:42.575Z,0.00
2018-02-09T04:17:42.505Z,0.00
2018-02-09T04:18:42.478Z,0.00
2018-02-09T04:19:42.450Z,0.00
2018-02-09T04:20:42.423Z,0.00
2018-02-09T04:21:42.383Z,0.00
2018-02-09T04:22:42.372Z,0.00
2018-02-09T04:23:42.333Z,0.00
2018-02-09T04:24:42.292Z,0.00
2018-02-09T04:25:45.190Z,0.00
2018-02-09T04:26:42.233Z,0.00
2018-02-09T04:27:44.184Z,0.00
2018-02-09T04:28:42.172Z,0.00
2018-02-09T04:29:42.145Z,0.00
2018-02-09T04:30:42.116Z,0.00
2018-02-09T04:31:42.086Z,0.00
2018-02-09T04:32:42.059Z,0.00
2018-02-09T04:33:42.028Z,0.00
2018-02-09T04:34:41.996Z,0.00
2018-02-09T04:35:41.965Z,0.00
2018-02-09T04:36:41.936Z,0.00
2018-02-09T04:37:41.936Z,0.00
2018-02-09T04:38:41.877Z,0.00
2018-02-09T04:39:41.844Z,0.00
2018-02-09T04:40:41.816Z,0.00
2018-02-09T04:41:41.785Z,0.00
2018-02-09T04:42:41.757Z,0.00
2018-02-09T04:43:41.725Z,0.00
2018-02-09T04:44:41.696Z,0.00
2018-02-09T04:45:41.666Z,0.00
2018-02-09T04:46:41.635Z,0.00
2018-02-09T04:47:41.607Z,0.00
2018-02-09T04:48:41.577Z,0.00
2018-02-09T04:49:41.546Z,0.00
2018-02-09T04:50:41.517Z,0.00
2018-02-09T04:51:41.488Z,0.00
2018-02-09T04:52:41.457Z,0.00
2018-02-09T04:53:41.427Z,0.00
2018-02-09T04:54:41.395Z,0.00
2018-02-09T04:55:41.365Z,0.00
2018-02-09T04:56:41.335Z,0.00
2018-02-09T04:57:41.308Z,0.00
2018-02-09T04:58:41.276Z,0.00
2018-02-09T04:59:41.246Z,0.00
2018-02-09T05:00:41.220Z,0.00
2018-02-09T05:01:41.186Z,0.00
2018-02-09T05:02:41.165Z,0.00
2018-02-09T05:03:41.126Z,0.00
2018-02-09T05:04:41.096Z,0.00
2018-02-09T05:05:41.066Z,0.00
2018-02-09T05:06:41.036Z,0.00
2018-02-09T05:07:41.006Z,0.00
2018-02-09T05:08:40.976Z,0.00
2018-02-09T05:09:40.945Z,0.00
2018-02-09T05:10:40.922Z,0.00
2018-02-09T05:11:40.886Z,0.00
2018-02-09T05:12:40.862Z,0.00
2018-02-09T05:13:40.829Z,0.00
2018-02-09T05:14:40.796Z,0.00
2018-02-09T05:15:40.763Z,0.00
2018-02-09T05:16:40.927Z,0.00
2018-02-09T05:17:40.706Z,0.00
2018-02-09T05:18:40.676Z,0.00
2018-02-09T05:19:40.642Z,0.00
2018-02-09T05:20:40.615Z,0.00
2018-02-09T05:21:40.589Z,0.00
2018-02-09T05:22:40.554Z,0.00
2018-02-09T05:23:40.525Z,0.00
2018-02-09T05:24:40.496Z,0.00
2018-02-09T05:25:40.463Z,0.00
2018-02-09T05:26:40.437Z,0.00
2018-02-09T05:27:40.402Z,0.00
2018-02-09T05:28:40.377Z,0.00
2018-02-09T05:29:40.342Z,0.00
2018-02-09T05:30:40.310Z,0.00
2018-02-09T05:31:40.284Z,0.00
2018-02-09T05:32:40.255Z,0.00
2018-02-09T05:33:40.226Z,0.00
2018-02-09T05:34:40.195Z,0.00
2018-02-09T05:35:40.167Z,0.00
2018-02-09T05:36:40.136Z,0.00
2018-02-09T05:37:40.105Z,0.00
2018-02-09T05:38:40.076Z,0.00
2018-02-09T05:39:40.045Z,0.00
2018-02-09T05:40:40.016Z,0.00
2018-02-09T05:41:39.985Z,0.00
2018-02-09T05:42:39.953Z,0.00
2018-02-09T05:43:39.926Z,0.00
2018-02-09T05:44:39.895Z,0.00
2018-02-09T05:45:39.862Z,0.00
2018-02-09T05:46:39.839Z,0.00
2018-02-09T05:47:39.801Z,0.00
2018-02-09T05:48:39.777Z,0.00
2018-02-09T05:49:39.745Z,0.00
2018-02-09T05:50:39.717Z,0.00
2018-02-09T05:51:39.685Z,0.00
2018-02-09T05:52:39.659Z,0.00
2018-02-09T05:53:39.621Z,0.00
2018-02-09T05:54:39.592Z,0.00
2018-02-09T05:55:39.571Z,0.00
2018-02-09T05:56:39.547Z,0.00
2018-02-09T05:57:39.508Z,0.00
2018-02-09T05:58:39.473Z,0.00
2018-02-09T05:59:39.452Z,0.00
2018-02-09T06:00:39.416Z,0.00
2018-02-09T06:01:39.385Z,0.00
2018-02-09T06:02:39.354Z,0.00
2018-02-09T06:03:39.333Z,0.00
2018-02-09T06:04:39.300Z,0.00
2018-02-09T06:05:39.266Z,0.00
2018-02-09T06:06:39.236Z,0.00
2018-02-09T06:07:39.207Z,0.00
2018-02-09T06:08:39.179Z,0.00
2018-02-09T06:09:39.148Z,0.00
2018-02-09T06:10:39.123Z,0.00
2018-02-09T06:11:39.095Z,0.00
2018-02-09T06:12:39.060Z,0.00
2018-02-09T06:13:39.078Z,0.00
2018-02-09T06:14:38.998Z,0.00
2018-02-09T06:15:38.972Z,0.00
2018-02-09T06:16:38.935Z,0.00
2018-02-09T06:17:38.917Z,0.00
2018-02-09T06:18:38.877Z,0.00
2018-02-09T06:19:38.857Z,0.00
2018-02-09T06:20:38.819Z,0.00
2018-02-09T06:21:38.792Z,0.00
2018-02-09T06:22:38.759Z,0.00
2018-02-09T06:23:38.729Z,4.00
2018-02-09T06:24:38.700Z,4.00
2018-02-09T06:25:38.678Z,0.00
2018-02-09T06:26:38.635Z,4.00
2018-02-09T06:27:38.611Z,4.00
2018-02-09T06:28:38.579Z,0.00
2018-02-09T06:29:38.554Z,4.00
2018-02-09T06:30:38.522Z,4.00
2018-02-09T06:31:38.493Z,8.00
2018-02-09T06:32:38.463Z,8.00
2018-02-09T06:33:38.431Z,8.00
2018-02-09T06:34:38.403Z,8.00
2018-02-09T06:35:38.373Z,12.00
2018-02-09T06:36:38.340Z,12.00
2018-02-09T06:37:38.305Z,16.00
2018-02-09T06:38:38.282Z,16.00
2018-02-09T06:39:38.252Z,24.00
2018-02-09T06:40:38.215Z,28.00
2018-02-09T06:41:38.190Z,28.00
2018-02-09T06:42:38.170Z,32.00
2018-02-09T06:43:38.130Z,40.00
2018-02-09T06:44:38.098Z,44.00
2018-02-09T06:45:38.071Z,52.00
2018-02-09T06:46:38.040Z,60.00
2018-02-09T06:47:38.018Z,68.00
2018-02-09T06:48:37.976Z,80.00
2018-02-09T06:49:37.959Z,92.00
2018-02-09T06:50:37.919Z,100.00
2018-02-09T06:51:37.900Z,120.00
2018-02-09T06:52:37.859Z,136.00
2018-02-09T06:53:37.842Z,156.00
2018-02-09T06:54:37.801Z,176.00
2018-02-09T06:55:37.777Z,196.00
2018-02-09T06:56:37.742Z,224.00
2018-02-09T06:57:37.710Z,252.00
2018-02-09T06:58:37.680Z,280.00
2018-02-09T06:59:37.650Z,312.00
2018-02-09T07:00:37.620Z,344.00
2018-02-09T07:01:37.593Z,368.00
2018-02-09T07:02:37.572Z,396.00
2018-02-09T07:03:37.533Z,432.00
2018-02-09T07:04:37.510Z,460.00
2018-02-09T07:05:40.199Z,496.00
2018-02-09T07:06:37.444Z,532.00
2018-02-09T07:07:37.415Z,576.00
2018-02-09T07:08:37.378Z,612.00
2018-02-09T07:09:37.351Z,652.00
2018-02-09T07:10:37.323Z,696.00
2018-02-09T07:11:37.299Z,736.00
2018-02-09T07:12:37.262Z,784.00
2018-02-09T07:13:37.246Z,836.00
2018-02-09T07:14:37.202Z,880.00
2018-02-09T07:15:37.169Z,928.00
2018-02-09T07:16:37.140Z,980.00
2018-02-09T07:17:37.113Z,1028.00
2018-02-09T07:18:37.077Z,1080.00
2018-02-09T07:19:37.052Z,1128.00
2018-02-09T07:20:37.016Z,1184.00
2018-02-09T07:21:36.993Z,1248.00
2018-02-09T07:22:36.962Z,1312.00
2018-02-09T07:23:36.932Z,1356.00
2018-02-09T07:24:36.896Z,1388.00
2018-02-09T07:25:36.867Z,1416.00
2018-02-09T07:26:36.843Z,1448.00
2018-02-09T07:27:36.813Z,1484.00
2018-02-09T07:28:36.780Z,1520.00
2018-02-09T07:29:36.751Z,1556.00
2018-02-09T07:30:36.720Z,1596.00
2018-02-09T07:31:36.685Z,1636.00
2018-02-09T07:32:36.680Z,1680.00
2018-02-09T07:33:36.630Z,1724.00
2018-02-09T07:34:36.606Z,1768.00
2018-02-09T07:35:36.569Z,1808.00
2018-02-09T07:36:36.536Z,1856.00
2018-02-09T07:37:36.512Z,1900.00
2018-02-09T07:38:36.479Z,1944.00
2018-02-09T07:39:36.446Z,1992.00
2018-02-09T07:40:36.417Z,2040.00
2018-02-09T07:41:36.384Z,2084.00
2018-02-09T07:42:36.354Z,2128.00
2018-02-09T07:43:36.329Z,2176.00
2018-02-09T07:44:36.300Z,2220.00
2018-02-09T07:45:36.265Z,2264.00
2018-02-09T07:46:36.237Z,2304.00
2018-02-09T07:47:36.204Z,2344.00
2018-02-09T07:48:36.174Z,2376.00
2018-02-09T07:49:36.143Z,2404.00
2018-02-09T07:50:36.112Z,2440.00
2018-02-09T07:51:36.082Z,2472.00
2018-02-09T07:52:36.053Z,2512.00
2018-02-09T07:53:36.021Z,2552.00
2018-02-09T07:54:35.993Z,2600.00
2018-02-09T07:55:35.962Z,2644.00
2018-02-09T07:56:35.932Z,2692.00
2018-02-09T07:57:35.900Z,2744.00
2018-02-09T07:58:35.868Z,2796.00
2018-02-09T07:59:35.839Z,2848.00
2018-02-09T08:00:35.810Z,2900.00
2018-02-09T08:01:35.779Z,2944.00
2018-02-09T08:02:35.749Z,2996.00
2018-02-09T08:03:35.723Z,3048.00
2018-02-09T08:04:35.688Z,3080.00
2018-02-09T08:05:35.658Z,3132.00
2018-02-09T08:06:35.624Z,3236.00
2018-02-09T08:07:35.599Z,3244.00
2018-02-09T08:08:35.566Z,3300.00
2018-02-09T08:09:35.537Z,3352.00
2018-02-09T08:10:35.506Z,3556.00
2018-02-09T08:11:35.476Z,3428.00
2018-02-09T08:12:35.464Z,3424.00
2018-02-09T08:13:35.417Z,3432.00
2018-02-09T08:14:35.388Z,3460.00
2018-02-09T08:15:35.356Z,3524.00
2018-02-09T08:16:35.330Z,3520.00
2018-02-09T08:17:35.290Z,3548.00
2018-02-09T08:18:35.265Z,3620.00
2018-02-09T08:19:35.235Z,3712.00
2018-02-09T08:20:35.207Z,3736.00
2018-02-09T08:21:35.174Z,3796.00
2018-02-09T08:22:35.144Z,3880.00
2018-02-09T08:23:35.114Z,3972.00
2018-02-09T08:24:35.091Z,4056.00
2018-02-09T08:25:35.055Z,4344.00
2018-02-09T08:26:35.021Z,4376.00
2018-02-09T08:27:34.995Z,4448.00
2018-02-09T08:28:34.960Z,4476.00
2018-02-09T08:29:34.934Z,4460.00
2018-02-09T08:30:34.901Z,4468.00
2018-02-09T08:31:34.873Z,4444.00
2018-02-09T08:32:34.841Z,4448.00
2018-02-09T08:33:34.813Z,4524.00
2018-02-09T08:34:34.784Z,4552.00
2018-02-09T08:35:34.755Z,4608.00
2018-02-09T08:36:34.726Z,4656.00
2018-02-09T08:37:34.694Z,4692.00
2018-02-09T08:38:34.665Z,4696.00
2018-02-09T08:39:34.635Z,4696.00
2018-02-09T08:40:34.606Z,4676.00
2018-02-09T08:41:34.576Z,4608.00
2018-02-09T08:42:34.545Z,4440.00
2018-02-09T08:43:34.540Z,4360.00
2018-02-09T08:44:34.487Z,4348.00
2018-02-09T08:45:34.457Z,4408.00
2018-02-09T08:46:34.427Z,4584.00
2018-02-09T08:47:34.398Z,4800.00
2018-02-09T08:48:34.369Z,4864.00
2018-02-09T08:49:34.337Z,4892.00
2018-02-09T08:50:34.309Z,4908.00
2018-02-09T08:51:34.277Z,4944.00
2018-02-09T08:52:34.251Z,4972.00
2018-02-09T08:53:34.223Z,4984.00
2018-02-09T08:54:34.190Z,4992.00
2018-02-09T08:55:34.209Z,5012.00
2018-02-09T08:56:34.130Z,5032.00
2018-02-09T08:57:34.101Z,5060.00
2018-02-09T08:58:34.069Z,5056.00
2018-02-09T08:59:34.043Z,5088.00
2018-02-09T09:00:34.015Z,5116.00
2018-02-09T09:01:33.983Z,5096.00
2018-02-09T09:02:33.953Z,4952.00
2018-02-09T09:03:33.925Z,4656.00
2018-02-09T09:04:33.895Z,4552.00
2018-02-09T09:05:33.865Z,4848.00
2018-02-09T09:06:33.831Z,5196.00
2018-02-09T09:07:33.810Z,5280.00
2018-02-09T09:08:33.777Z,5268.00
2018-02-09T09:09:33.746Z,5276.00
2018-02-09T09:10:33.716Z,5292.00
2018-02-09T09:11:33.689Z,5320.00
2018-02-09T09:12:33.659Z,5320.00
2018-02-09T09:13:33.629Z,5384.00
2018-02-09T09:14:33.599Z,5388.00
2018-02-09T09:15:33.572Z,5432.00
2018-02-09T09:16:33.541Z,5496.00
2018-02-09T09:17:33.511Z,5508.00
2018-02-09T09:18:33.481Z,5500.00
2018-02-09T09:19:33.454Z,5536.00
2018-02-09T09:20:33.425Z,5580.00
2018-02-09T09:21:33.399Z,5648.00
2018-02-09T09:22:33.366Z,5672.00
2018-02-09T09:23:33.337Z,5720.00
2018-02-09T09:24:33.308Z,5740.00
2018-02-09T09:25:33.278Z,5768.00
2018-02-09T09:26:33.249Z,5824.00
2018-02-09T09:27:33.220Z,5880.00
2018-02-09T09:28:33.191Z,5948.00
2018-02-09T09:29:33.160Z,6016.00
2018-02-09T09:30:33.132Z,6068.00
2018-02-09T09:31:33.103Z,6124.00
2018-02-09T09:32:33.080Z,6188.00
2018-02-09T09:33:33.045Z,6316.00
2018-02-09T09:34:33.058Z,6412.00
2018-02-09T09:35:32.984Z,6472.00
2018-02-09T09:36:32.961Z,6536.00
2018-02-09T09:37:32.930Z,6624.00
2018-02-09T09:38:32.901Z,6704.00
2018-02-09T09:39:32.872Z,6820.00
2018-02-09T09:40:32.843Z,6856.00
2018-02-09T09:41:32.814Z,6964.00
2018-02-09T09:42:32.790Z,7052.00
2018-02-09T09:43:32.756Z,7160.00
2018-02-09T09:44:32.729Z,7220.00
2018-02-09T09:45:32.700Z,7288.00
2018-02-09T09:46:32.672Z,7440.00
2018-02-09T09:47:32.642Z,7704.00
2018-02-09T09:48:32.613Z,8124.00
2018-02-09T09:49:32.584Z,8452.00
2018-02-09T09:50:32.558Z,8528.00
2018-02-09T09:51:32.528Z,8664.00
2018-02-09T09:52:32.500Z,8696.00
2018-02-09T09:53:32.470Z,8736.00
2018-02-09T09:54:32.444Z,8764.00
2018-02-09T09:55:32.414Z,8924.00
2018-02-09T09:56:32.387Z,8972.00
2018-02-09T09:57:32.357Z,8896.00
2018-02-09T09:58:32.330Z,8972.00
2018-02-09T09:59:32.302Z,8968.00
2018-02-09T10:00:32.275Z,9028.00
2018-02-09T10:01:32.247Z,9040.00
2018-02-09T10:02:32.220Z,9060.00
2018-02-09T10:03:32.193Z,8996.00
2018-02-09T10:04:32.166Z,8884.00
2018-02-09T10:05:32.141Z,8812.00
2018-02-09T10:06:32.109Z,8584.00
2018-02-09T10:07:32.085Z,8552.00
2018-02-09T10:08:32.059Z,8480.00
2018-02-09T10:09:32.030Z,8224.00
2018-02-09T10:10:32.004Z,7948.00
2018-02-09T10:11:31.977Z,8144.00
2018-02-09T10:12:31.952Z,8280.00
2018-02-09T10:13:31.942Z,8344.00
2018-02-09T10:14:31.899Z,8376.00
2018-02-09T10:15:31.876Z,8368.00
2018-02-09T10:16:31.846Z,8624.00
2018-02-09T10:17:31.818Z,8576.00
2018-02-09T10:18:31.795Z,8624.00
2018-02-09T10:19:31.770Z,8924.00
2018-02-09T10:20:31.744Z,9176.00
2018-02-09T10:21:31.716Z,9212.00
2018-02-09T10:22:31.691Z,9352.00
2018-02-09T10:23:31.665Z,9852.00
2018-02-09T10:24:31.639Z,10304.00
2018-02-09T10:25:31.612Z,10544.00
2018-02-09T10:26:31.588Z,10832.00
2018-02-09T10:27:31.562Z,10976.00
2018-02-09T10:28:31.536Z,11076.00
2018-02-09T10:29:31.510Z,10988.00
2018-02-09T10:30:31.484Z,11424.00
2018-02-09T10:31:31.462Z,11760.00
2018-02-09T10:32:31.433Z,12072.00
2018-02-09T10:33:31.407Z,12328.00
2018-02-09T10:34:31.382Z,12832.00
2018-02-09T10:35:31.357Z,13456.00
2018-02-09T10:36:31.332Z,13708.00
2018-02-09T10:37:31.308Z,13780.00
2018-02-09T10:38:31.282Z,14368.00
2018-02-09T10:39:31.258Z,14520.00
2018-02-09T10:40:31.232Z,14908.00
2018-02-09T10:41:31.208Z,14564.00
2018-02-09T10:42:31.183Z,15776.00
2018-02-09T10:43:31.166Z,16064.00
2018-02-09T10:44:31.136Z,15712.00
2018-02-09T10:45:31.112Z,16064.00
2018-02-09T10:46:31.087Z,17376.00
2018-02-09T10:47:31.064Z,18464.00
2018-02-09T10:48:31.042Z,18304.00
2018-02-09T10:49:31.020Z,18080.00
2018-02-09T10:50:30.994Z,17920.00
2018-02-09T10:51:30.973Z,18144.00
2018-02-09T10:52:30.948Z,19616.00
2018-02-09T10:53:30.926Z,20576.00
2018-02-09T10:54:30.902Z,19616.00
2018-02-09T10:55:30.882Z,22112.00
2018-02-09T10:56:30.858Z,21280.00
2018-02-09T10:57:30.837Z,20544.00
2018-02-09T10:58:30.815Z,20544.00
2018-02-09T10:59:30.791Z,20320.00
2018-02-09T11:00:30.771Z,20608.00
2018-02-09T11:01:30.749Z,20096.00
2018-02-09T11:02:30.731Z,19904.00
2018-02-09T11:03:30.706Z,22912.00
2018-02-09T11:04:30.687Z,25408.00
2018-02-09T11:05:30.666Z,25984.00
2018-02-09T11:06:30.641Z,25888.00
2018-02-09T11:07:30.620Z,25152.00
2018-02-09T11:08:30.601Z,24672.00
2018-02-09T11:09:30.578Z,24800.00
2018-02-09T11:10:30.557Z,24192.00
2018-02-09T11:11:30.536Z,23808.00
2018-02-09T11:12:30.514Z,24608.00
2018-02-09T11:13:30.497Z,24192.00
2018-02-09T11:14:30.472Z,24544.00
2018-02-09T11:15:30.453Z,24160.00
2018-02-09T11:16:30.432Z,23584.00
2018-02-09T11:17:30.411Z,24384.00
2018-02-09T11:18:30.391Z,24864.00
2018-02-09T11:19:30.370Z,25152.00
2018-02-09T11:20:30.350Z,26976.00
2018-02-09T11:21:30.329Z,26976.00
2018-02-09T11:22:30.309Z,25856.00
2018-02-09T11:23:30.343Z,25728.00
2018-02-09T11:24:30.270Z,26592.00
2018-02-09T11:25:30.250Z,26560.00
2018-02-09T11:26:30.228Z,27360.00
2018-02-09T11:27:30.212Z,27904.00
2018-02-09T11:28:30.189Z,28320.00
2018-02-09T11:29:30.175Z,28608.00
2018-02-09T11:30:30.161Z,28832.00
2018-02-09T11:31:30.133Z,29600.00
2018-02-09T11:32:30.111Z,31424.00
2018-02-09T11:33:30.091Z,32096.00
2018-02-09T11:34:30.070Z,31840.00
2018-02-09T11:35:30.052Z,32896.00
2018-02-09T11:36:30.033Z,33056.00
2018-02-09T11:37:30.014Z,33376.00
2018-02-09T11:38:29.999Z,32480.00
2018-02-09T11:39:29.979Z,32096.00
2018-02-09T11:40:29.960Z,34016.00
2018-02-09T11:41:29.938Z,33504.00
2018-02-09T11:42:29.921Z,32768.00
2018-02-09T11:43:29.903Z,32832.00
2018-02-09T11:44:29.883Z,33536.00
2018-02-09T11:45:29.864Z,33888.00
2018-02-09T11:46:29.846Z,33536.00
2018-02-09T11:47:29.827Z,33152.00
2018-02-09T11:48:29.808Z,34912.00
2018-02-09T11:49:29.793Z,36768.00
2018-02-09T11:50:29.770Z,34976.00
2018-02-09T11:51:29.762Z,35232.00
2018-02-09T11:52:29.734Z,35264.00
2018-02-09T11:53:29.713Z,36288.00
2018-02-09T11:54:29.694Z,35744.00
2018-02-09T11:55:29.675Z,35520.00
2018-02-09T11:56:29.659Z,36768.00
2018-02-09T11:57:29.638Z,36960.00
2018-02-09T11:58:29.620Z,34336.00
2018-02-09T11:59:29.601Z,34368.00
2018-02-09T12:00:29.587Z,36704.00
2018-02-09T12:01:29.565Z,38464.00
2018-02-09T12:02:29.546Z,42080.00
2018-02-09T12:03:29.528Z,42752.00
2018-02-09T12:04:29.510Z,44032.00
2018-02-09T12:05:29.492Z,44448.00
2018-02-09T12:06:29.475Z,46144.00
2018-02-09T12:07:29.461Z,43552.00
2018-02-09T12:08:29.436Z,41824.00
2018-02-09T12:09:29.417Z,43360.00
2018-02-09T12:10:29.400Z,40512.00
2018-02-09T12:11:29.380Z,39712.00
2018-02-09T12:12:29.364Z,39040.00
2018-02-09T12:13:29.346Z,40256.00
2018-02-09T12:14:29.327Z,42592.00
2018-02-09T12:15:29.308Z,45728.00
2018-02-09T12:16:29.295Z,45056.00
2018-02-09T12:17:29.274Z,43840.00
2018-02-09T12:18:29.252Z,45376.00
2018-02-09T12:19:29.243Z,44896.00
2018-02-09T12:20:29.220Z,44704.00
2018-02-09T12:21:29.201Z,45696.00
2018-02-09T12:22:29.189Z,45856.00
2018-02-09T12:23:29.167Z,44544.00
2018-02-09T12:24:29.149Z,46016.00
2018-02-09T12:25:29.131Z,44352.00
2018-02-09T12:26:29.114Z,46528.00
2018-02-09T12:27:29.096Z,47648.00
2018-02-09T12:28:29.078Z,48384.00
2018-02-09T12:29:29.059Z,47840.00
2018-02-09T12:30:29.039Z,46816.00
2018-02-09T12:31:29.026Z,46016.00
2018-02-09T12:32:29.007Z,48768.00
2018-02-09T12:33:28.989Z,48736.00
2018-02-09T12:34:28.984Z,48672.00
2018-02-09T12:35:28.956Z,45856.00
2018-02-09T12:36:28.934Z,47264.00
2018-02-09T12:37:28.923Z,47680.00
2018-02-09T12:38:28.902Z,50112.00
2018-02-09T12:39:28.885Z,47456.00